Time;durP1;ratioP1;P1;durP2;ratioP2;P2;SDS_P1;SDS_P2;PMS_P1;PMS_P2;Temp;Humidity;BMP_temperature;BMP_pressure;BME280_temperature;BME280_humidity;BME280_pressure;Samples;Min_cycle;Max_cycle;Signal;HPM_P1;HPM_P2
2022/04/23 00:01:49;;;;;;;0.73;0.73;;;10.90;99.90;;;;;;5054169;28;20209;-77
2022/04/23 00:04:15;;;;;;;0.80;0.80;;;10.80;99.90;;;;;;5036445;28;20171;-78
2022/04/23 00:06:43;;;;;;;0.80;0.80;;;10.70;1.00;;;;;;5054799;28;20211;-77
2022/04/23 00:09:08;;;;;;;0.80;0.80;;;10.60;1.00;;;;;;5054195;28;20185;-76
2022/04/23 00:11:34;;;;;;;0.70;0.70;;;10.70;1.00;;;;;;5054248;28;20206;-77
2022/04/23 00:14:00;;;;;;;0.70;0.70;;;10.70;1.00;;;;;;5054835;28;20195;-78
2022/04/23 00:16:27;;;;;;;0.77;0.77;;;10.60;1.00;;;;;;5054783;28;20175;-77
2022/04/23 00:18:53;;;;;;;0.80;0.80;;;10.60;1.00;;;;;;5054467;28;20273;-76
2022/04/23 00:21:19;;;;;;;0.70;0.70;;;10.60;1.00;;;;;;5054222;28;20214;-77
2022/04/23 00:23:47;;;;;;;0.80;0.80;;;10.50;99.90;;;;;;5055722;28;20185;-78
2022/04/23 00:26:13;;;;;;;0.60;0.60;;;10.40;99.90;;;;;;5058023;28;20221;-78
2022/04/23 00:28:38;;;;;;;0.80;0.80;;;10.40;99.90;;;;;;5057486;28;20183;-79
2022/04/23 00:31:05;;;;;;;0.70;0.70;;;10.40;99.90;;;;;;5058511;28;20195;-79
2022/04/23 00:33:32;;;;;;;0.70;0.70;;;10.40;99.90;;;;;;5059158;28;20547;-77
2022/04/23 00:35:58;;;;;;;0.60;0.60;;;10.30;99.90;;;;;;5060544;28;20179;-78
2022/04/23 00:38:24;;;;;;;0.80;0.80;;;10.30;99.90;;;;;;5057643;28;20229;-80
2022/04/23 00:40:50;;;;;;;0.77;0.77;;;10.10;1.00;;;;;;5057262;28;20195;-79
2022/04/23 00:43:29;;;;;;;0.60;0.60;;;10.00;1.00;;;;;;5057353;28;20174;-78
2022/04/23 00:45:55;;;;;;;0.70;0.70;;;9.80;1.00;;;;;;5056537;28;20214;-79
2022/04/23 00:48:21;;;;;;;0.70;0.70;;;9.70;1.00;;;;;;5055103;28;20182;-79
2022/04/23 00:50:51;;;;;;;0.80;0.80;;;9.60;1.00;;;;;;5052738;28;20203;-77
2022/04/23 00:53:16;;;;;;;0.80;0.80;;;9.60;1.00;;;;;;5053406;28;20179;-77
2022/04/23 00:55:42;;;;;;;0.60;0.60;;;9.60;1.00;;;;;;5056951;28;20187;-79
2022/04/23 00:58:11;;;;;;;0.70;0.70;;;9.50;1.00;;;;;;5060867;28;20592;-80
2022/04/23 01:00:39;;;;;;;0.77;0.77;;;9.30;1.00;;;;;;5058565;28;20722;-79
2022/04/23 01:03:05;;;;;;;0.70;0.70;;;9.30;1.00;;;;;;5058828;28;20565;-79
2022/04/23 01:05:31;;;;;;;0.80;0.80;;;9.50;1.00;;;;;;5054570;28;20297;-77
2022/04/23 01:08:02;;;;;;;0.80;0.80;;;9.60;1.00;;;;;;5055204;28;20210;-77
2022/04/23 01:10:29;;;;;;;0.70;0.70;;;9.70;1.00;;;;;;5053917;28;20211;-77
2022/04/23 01:12:54;;;;;;;0.67;0.67;;;9.70;1.00;;;;;;5057614;28;20178;-79
2022/04/23 01:15:21;;;;;;;0.70;0.70;;;9.60;1.00;;;;;;5070726;28;20175;-79
2022/04/23 01:17:49;;;;;;;0.73;0.73;;;9.70;1.00;;;;;;5062791;28;20249;-78
2022/04/23 01:20:15;;;;;;;0.73;0.73;;;9.70;1.00;;;;;;5058896;28;20247;-78
2022/04/23 01:22:43;;;;;;;0.70;0.70;;;9.60;1.00;;;;;;5059200;28;20205;-79
2022/04/23 01:25:12;;;;;;;0.70;0.70;;;9.60;1.00;;;;;;5059848;28;20262;-79
2022/04/23 01:27:39;;;;;;;0.70;0.70;;;9.50;1.00;;;;;;5058704;28;20251;-79
2022/04/23 01:30:06;;;;;;;0.70;0.70;;;9.40;1.00;;;;;;5058648;28;20207;-79
2022/04/23 01:32:32;;;;;;;0.70;0.70;;;9.30;1.00;;;;;;5057974;28;20256;-79
2022/04/23 01:34:58;;;;;;;0.80;0.80;;;9.40;1.00;;;;;;5058677;28;20179;-79
2022/04/23 01:37:23;;;;;;;0.80;0.80;;;9.30;1.00;;;;;;5056253;28;20252;-77
2022/04/23 01:39:49;;;;;;;0.70;0.70;;;9.30;1.00;;;;;;5051894;28;20167;-77
2022/04/23 01:42:19;;;;;;;0.70;0.70;;;9.20;1.00;;;;;;5054796;28;20205;-76
2022/04/23 01:44:49;;;;;;;0.70;0.70;;;9.30;1.00;;;;;;5053811;28;20171;-78
2022/04/23 01:47:15;;;;;;;0.70;0.70;;;9.10;1.00;;;;;;5053872;28;20310;-80
2022/04/23 01:49:42;;;;;;;0.80;0.80;;;9.10;1.00;;;;;;5052834;28;20218;-78
2022/04/23 01:52:08;;;;;;;0.80;0.80;;;9.20;1.00;;;;;;5048363;28;20217;-77
2022/04/23 01:54:34;;;;;;;0.80;0.80;;;9.20;1.00;;;;;;5053328;28;20179;-77
2022/04/23 01:57:00;;;;;;;0.80;0.80;;;9.10;1.00;;;;;;5053465;28;20179;-77
2022/04/23 01:59:26;;;;;;;0.83;0.83;;;9.00;24.00;;;;;;5052791;28;20175;-77
2022/04/23 02:01:52;;;;;;;0.73;0.73;;;9.00;22.40;;;;;;5056516;28;20263;-78
2022/04/23 02:04:18;;;;;;;0.80;0.80;;;9.00;35.60;;;;;;5069055;28;20178;-78
2022/04/23 02:06:44;;;;;;;0.70;0.70;;;8.90;56.20;;;;;;5069797;28;20237;-77
2022/04/23 02:09:10;;;;;;;0.80;0.80;;;8.80;77.80;;;;;;5047120;28;20644;-78
2022/04/23 02:11:35;;;;;;;0.70;0.70;;;8.70;99.90;;;;;;5052917;28;20271;-77
2022/04/23 02:14:02;;;;;;;0.77;0.77;;;8.60;99.90;;;;;;5054955;28;20182;-79
2022/04/23 02:16:28;;;;;;;0.70;0.70;;;8.60;99.90;;;;;;5054489;28;20652;-78
2022/04/23 02:18:54;;;;;;;0.77;0.77;;;8.60;99.90;;;;;;5053288;28;20179;-79
2022/04/23 02:21:19;;;;;;;0.70;0.70;;;8.50;99.90;;;;;;5053583;28;20286;-78
2022/04/23 02:23:45;;;;;;;0.70;0.70;;;8.40;99.90;;;;;;5055552;28;20186;-78
2022/04/23 02:26:11;;;;;;;0.60;0.60;;;8.60;99.90;;;;;;5056165;28;20227;-78
2022/04/23 02:28:39;;;;;;;0.70;0.70;;;8.60;99.90;;;;;;5055013;28;20550;-77
2022/04/23 02:31:08;;;;;;;0.80;0.80;;;8.60;99.90;;;;;;5054273;28;20218;-77
2022/04/23 02:33:34;;;;;;;0.67;0.67;;;8.70;99.90;;;;;;5054021;28;20194;-77
2022/04/23 02:36:00;;;;;;;0.67;0.67;;;8.60;99.90;;;;;;5054279;28;20558;-78
2022/04/23 02:38:25;;;;;;;0.70;0.70;;;8.60;99.90;;;;;;5054037;28;20175;-76
2022/04/23 02:40:51;;;;;;;0.70;0.70;;;8.50;99.90;;;;;;5052904;28;20191;-78
2022/04/23 02:43:16;;;;;;;0.73;0.73;;;8.50;99.90;;;;;;5054507;28;20313;-78
2022/04/23 02:45:42;;;;;;;0.70;0.70;;;8.40;99.90;;;;;;5054107;28;20547;-78
2022/04/23 02:48:11;;;;;;;0.80;0.80;;;8.40;99.90;;;;;;5054136;28;20224;-78
2022/04/23 02:50:38;;;;;;;0.80;0.80;;;8.40;99.90;;;;;;5052483;28;20277;-78
2022/04/23 02:53:05;;;;;;;0.80;0.80;;;8.30;99.90;;;;;;5053005;28;20187;-79
2022/04/23 02:55:31;;;;;;;0.70;0.70;;;8.40;99.90;;;;;;5053211;28;20317;-78
2022/04/23 02:58:01;;;;;;;0.80;0.80;;;8.40;99.90;;;;;;5053692;28;20177;-78
2022/04/23 03:00:26;;;;;;;0.63;0.63;;;8.30;99.90;;;;;;5052907;28;20214;-77
2022/04/23 03:02:52;;;;;;;0.80;0.80;;;8.40;99.90;;;;;;5052400;28;20289;-77
2022/04/23 03:05:18;;;;;;;0.70;0.70;;;8.30;99.90;;;;;;5052258;28;20632;-77
2022/04/23 03:07:45;;;;;;;0.63;0.63;;;8.30;99.90;;;;;;5052324;28;20265;-77
2022/04/23 03:10:13;;;;;;;0.80;0.80;;;8.40;99.90;;;;;;5052212;28;20171;-78
2022/04/23 03:12:39;;;;;;;0.70;0.70;;;8.30;99.90;;;;;;5052548;28;20186;-77
2022/04/23 03:15:07;;;;;;;0.63;0.63;;;8.30;99.90;;;;;;5056734;28;20175;-78
2022/04/23 03:17:33;;;;;;;0.80;0.80;;;8.30;99.90;;;;;;5057205;28;20636;-78
2022/04/23 03:19:58;;;;;;;0.73;0.73;;;8.20;99.90;;;;;;5056683;28;20247;-77
2022/04/23 03:22:24;;;;;;;0.70;0.70;;;8.20;99.90;;;;;;5057637;28;20318;-78
2022/04/23 03:24:49;;;;;;;0.60;0.60;;;8.10;99.90;;;;;;5052062;28;20175;-78
2022/04/23 03:27:15;;;;;;;0.73;0.73;;;8.20;99.90;;;;;;5057931;28;20203;-78
2022/04/23 03:29:41;;;;;;;0.70;0.70;;;8.10;99.90;;;;;;5057783;28;20182;-78
2022/04/23 03:32:07;;;;;;;0.77;0.77;;;8.20;99.90;;;;;;5057025;28;20209;-78
2022/04/23 03:34:33;;;;;;;0.70;0.70;;;8.20;99.90;;;;;;5057101;28;20177;-79
2022/04/23 03:36:58;;;;;;;0.80;0.80;;;8.20;99.90;;;;;;5056162;28;20254;-78
2022/04/23 03:39:24;;;;;;;0.70;0.70;;;8.10;99.90;;;;;;5056204;28;20202;-78
2022/04/23 03:41:50;;;;;;;0.77;0.77;;;8.20;99.90;;;;;;5053872;28;20188;-78
2022/04/23 03:44:16;;;;;;;0.60;0.60;;;8.10;99.90;;;;;;5036757;28;20550;-78
2022/04/23 03:46:41;;;;;;;0.60;0.60;;;8.10;99.90;;;;;;5055646;28;20203;-77
2022/04/23 03:49:10;;;;;;;0.70;0.70;;;8.10;99.90;;;;;;5054692;28;20180;-78
2022/04/23 03:51:35;;;;;;;0.77;0.77;;;8.20;99.90;;;;;;5055907;28;20195;-78
2022/04/23 03:54:01;;;;;;;0.70;0.70;;;8.20;99.90;;;;;;5056067;28;20163;-78
2022/04/23 03:56:27;;;;;;;0.70;0.70;;;8.20;99.90;;;;;;5056311;28;20175;-78
2022/04/23 03:58:53;;;;;;;0.70;0.70;;;8.20;99.90;;;;;;5055303;28;20175;-79
2022/04/23 04:01:19;;;;;;;0.70;0.70;;;8.30;99.90;;;;;;5057128;28;20286;-79
2022/04/23 04:03:44;;;;;;;0.70;0.70;;;8.20;99.90;;;;;;5056983;28;20183;-78
2022/04/23 04:06:10;;;;;;;0.80;0.80;;;8.30;99.90;;;;;;5057109;28;20214;-78
2022/04/23 04:08:36;;;;;;;0.80;0.80;;;8.40;99.90;;;;;;5056898;28;20203;-78
2022/04/23 04:11:01;;;;;;;0.60;0.60;;;8.40;99.90;;;;;;5055127;28;20210;-78
2022/04/23 04:13:27;;;;;;;0.70;0.70;;;8.30;99.90;;;;;;5057059;28;20325;-79
2022/04/23 04:15:53;;;;;;;0.73;0.73;;;8.30;99.90;;;;;;5060391;28;20194;-78
2022/04/23 04:18:19;;;;;;;0.70;0.70;;;8.40;99.90;;;;;;5057494;28;20182;-77
2022/04/23 04:20:48;;;;;;;0.60;0.60;;;8.40;99.90;;;;;;5056189;28;20609;-77
2022/04/23 04:23:17;;;;;;;0.70;0.70;;;8.40;99.90;;;;;;5058989;28;20182;-77
2022/04/23 04:25:43;;;;;;;0.70;0.70;;;8.50;99.90;;;;;;5052987;28;20229;-77
2022/04/23 04:28:09;;;;;;;0.70;0.70;;;8.50;99.90;;;;;;5052891;28;20175;-77
2022/04/23 04:33:29;;;;;;;0.70;0.70;;;8.50;99.90;;;;;;4982002;28;20201;-77
2022/04/23 04:35:55;;;;;;;0.70;0.70;;;8.40;99.90;;;;;;5055950;28;20258;-78
2022/04/23 04:38:20;;;;;;;0.70;0.70;;;8.50;99.90;;;;;;5056311;28;20187;-79
2022/04/23 04:40:46;;;;;;;0.70;0.70;;;8.50;99.90;;;;;;5047707;28;20865;-77
2022/04/23 04:43:12;;;;;;;0.70;0.70;;;8.50;99.90;;;;;;5053433;28;20225;-78
2022/04/23 04:45:37;;;;;;;0.67;0.67;;;8.50;99.90;;;;;;5050695;28;20690;-78
2022/04/23 04:48:05;;;;;;;0.70;0.70;;;8.50;99.90;;;;;;5047949;28;20305;-77
2022/04/23 04:50:31;;;;;;;0.70;0.70;;;8.60;99.90;;;;;;5046800;28;20195;-78
2022/04/23 04:53:00;;;;;;;0.70;0.70;;;8.60;99.90;;;;;;5047010;28;20175;-78
2022/04/23 04:55:26;;;;;;;0.63;0.63;;;8.70;99.90;;;;;;5055256;28;20276;-79
2022/04/23 04:57:51;;;;;;;0.63;0.63;;;8.80;99.90;;;;;;5055964;28;20176;-78
2022/04/23 05:00:20;;;;;;;0.70;0.70;;;8.90;99.90;;;;;;5053810;28;20203;-77
2022/04/23 05:02:46;;;;;;;0.77;0.77;;;9.00;73.00;;;;;;5041644;28;20198;-78
2022/04/23 05:05:12;;;;;;;0.60;0.60;;;9.40;50.50;;;;;;5068000;28;20632;-78
2022/04/23 05:07:38;;;;;;;0.70;0.70;;;9.10;26.20;;;;;;5066810;28;20189;-78
2022/04/23 05:10:04;;;;;;;0.70;0.70;;;9.00;12.60;;;;;;5061480;28;20202;-75
2022/04/23 05:12:30;;;;;;;0.70;0.70;;;9.10;22.80;;;;;;5065382;28;20644;-76
2022/04/23 05:14:55;;;;;;;0.60;0.60;;;9.10;16.40;;;;;;5092325;22;20227;-77
2022/04/23 05:17:21;;;;;;;0.60;0.60;;;9.10;3.40;;;;;;5100503;28;20227;-78
2022/04/23 05:19:46;;;;;;;0.60;0.60;;;9.10;1.00;;;;;;5100224;28;20646;-78
2022/04/23 05:22:12;;;;;;;0.53;0.53;;;9.10;1.00;;;;;;5098853;28;20197;-78
2022/04/23 05:24:37;;;;;;;0.70;0.70;;;9.10;1.00;;;;;;5100281;28;20181;-78
2022/04/23 05:27:03;;;;;;;0.60;0.60;;;9.10;1.00;;;;;;5101680;28;20209;-78
2022/04/23 05:29:29;;;;;;;0.73;0.73;;;9.10;1.00;;;;;;5099639;28;20639;-77
2022/04/23 05:31:54;;;;;;;0.70;0.70;;;9.10;1.00;;;;;;5094496;28;20239;-76
2022/04/23 05:34:20;;;;;;;0.67;0.67;;;9.10;1.00;;;;;;5093802;28;20174;-77
2022/04/23 05:36:45;;;;;;;0.60;0.60;;;9.10;1.00;;;;;;5093527;28;20188;-77
2022/04/23 05:39:11;;;;;;;0.60;0.60;;;9.10;1.00;;;;;;5093213;28;20203;-77
2022/04/23 05:41:37;;;;;;;0.70;0.70;;;9.20;1.00;;;;;;5093048;28;20558;-75
2022/04/23 05:44:02;;;;;;;0.70;0.70;;;9.20;1.00;;;;;;5093338;28;20193;-77
2022/04/23 05:46:28;;;;;;;0.77;0.77;;;9.30;1.00;;;;;;5092022;28;20213;-75
2022/04/23 05:48:55;;;;;;;0.63;0.63;;;9.30;1.00;;;;;;5093817;28;20182;-77
2022/04/23 05:51:20;;;;;;;0.60;0.60;;;9.30;1.00;;;;;;5093643;28;20216;-77
2022/04/23 05:53:46;;;;;;;0.70;0.70;;;9.30;1.00;;;;;;5095857;28;20638;-76
2022/04/23 05:56:11;;;;;;;0.60;0.60;;;9.30;1.00;;;;;;5098032;28;20177;-76
2022/04/23 05:58:37;;;;;;;0.60;0.60;;;9.30;1.00;;;;;;5097658;28;20342;-77
2022/04/23 06:01:04;;;;;;;0.67;0.67;;;9.30;1.00;;;;;;5095897;28;20205;-76
2022/04/23 06:03:29;;;;;;;0.60;0.60;;;9.30;1.00;;;;;;5093718;28;20201;-77
2022/04/23 06:05:56;;;;;;;0.60;0.60;;;9.40;1.00;;;;;;5093179;28;20225;-76
2022/04/23 06:08:21;;;;;;;0.60;0.60;;;9.30;1.00;;;;;;5093321;28;20208;-76
2022/04/23 06:10:47;;;;;;;0.60;0.60;;;9.40;1.00;;;;;;5092350;28;20233;-76
2022/04/23 06:13:13;;;;;;;0.60;0.60;;;9.30;1.00;;;;;;5092387;28;20186;-78
2022/04/23 06:15:38;;;;;;;0.57;0.57;;;9.40;1.00;;;;;;5093342;28;20205;-77
2022/04/23 06:18:04;;;;;;;0.53;0.53;;;9.50;1.00;;;;;;5095233;28;20539;-77
2022/04/23 06:20:29;;;;;;;0.60;0.60;;;9.50;1.00;;;;;;5095082;28;20627;-77
2022/04/23 06:22:55;;;;;;;0.70;0.70;;;9.50;1.00;;;;;;5086436;28;20262;-79
2022/04/23 06:25:21;;;;;;;0.60;0.60;;;9.50;1.00;;;;;;5090843;28;20184;-76
2022/04/23 06:27:46;;;;;;;0.60;0.60;;;9.40;1.00;;;;;;5092928;28;20176;-75
2022/04/23 06:30:12;;;;;;;0.67;0.67;;;9.40;1.00;;;;;;5088805;28;20326;-74
2022/04/23 06:32:38;;;;;;;0.70;0.70;;;9.70;1.00;;;;;;5075476;28;20190;-75
2022/04/23 06:35:05;;;;;;;0.60;0.60;;;9.80;1.00;;;;;;5072826;28;20209;-76
2022/04/23 06:37:32;;;;;;;0.63;0.63;;;9.90;1.00;;;;;;5072989;28;20226;-76
2022/04/23 06:39:57;;;;;;;0.50;0.50;;;9.70;1.00;;;;;;5072117;28;20182;-76
2022/04/23 06:42:24;;;;;;;0.60;0.60;;;9.80;1.00;;;;;;5080220;28;20550;-75
2022/04/23 06:44:49;;;;;;;0.60;0.60;;;9.90;1.00;;;;;;5092097;28;20322;-75
2022/04/23 06:47:15;;;;;;;0.60;0.60;;;10.00;1.00;;;;;;5092888;28;20705;-76
2022/04/23 06:49:41;;;;;;;0.70;0.70;;;9.70;1.00;;;;;;5091134;28;20719;-77
2022/04/23 06:52:06;;;;;;;0.70;0.70;;;9.90;1.00;;;;;;5092663;28;20284;-77
2022/04/23 06:54:32;;;;;;;0.50;0.50;;;10.10;1.00;;;;;;5092812;28;20200;-76
2022/04/23 06:56:57;;;;;;;0.70;0.70;;;10.10;99.90;;;;;;5092043;28;20226;-76
2022/04/23 06:59:23;;;;;;;0.60;0.60;;;10.10;99.90;;;;;;5091548;28;20220;-76
2022/04/23 07:01:49;;;;;;;0.70;0.70;;;10.30;99.90;;;;;;5092091;28;20186;-77
2022/04/23 07:04:14;;;;;;;0.50;0.50;;;10.30;1.00;;;;;;5092834;28;20631;-77
2022/04/23 07:06:40;;;;;;;0.50;0.50;;;10.40;1.00;;;;;;5092604;28;20244;-77
2022/04/23 07:09:06;;;;;;;0.70;0.70;;;10.50;1.00;;;;;;5091686;28;20202;-77
2022/04/23 07:11:32;;;;;;;0.50;0.50;;;10.40;71.20;;;;;;5092063;28;20201;-76
2022/04/23 07:13:57;;;;;;;0.70;0.70;;;10.40;1.00;;;;;;5091079;28;20169;-78
2022/04/23 07:16:23;;;;;;;0.50;0.50;;;10.40;1.00;;;;;;5091641;28;20338;-75
2022/04/23 07:18:52;;;;;;;0.60;0.60;;;10.30;91.10;;;;;;5087851;28;20224;-77
2022/04/23 07:21:18;;;;;;;0.60;0.60;;;10.10;99.90;;;;;;5089580;28;20625;-76
2022/04/23 07:26:28;;;;;;;0.70;0.70;;;10.40;1.00;;;;;;5089442;28;20209;-76
2022/04/23 07:28:54;;;;;;;0.80;0.80;;;10.50;1.00;;;;;;5089209;28;20174;-76
2022/04/23 07:31:19;;;;;;;0.70;0.70;;;10.60;99.90;;;;;;5088705;28;20205;-75
2022/04/23 07:39:13;;;;;;;0.70;0.70;;;10.60;1.00;;;;;;5093739;28;20213;-76
2022/04/23 07:41:39;;;;;;;0.60;0.60;;;10.60;99.90;;;;;;5091593;28;20621;-76
2022/04/23 07:44:05;;;;;;;0.60;0.60;;;10.30;1.00;;;;;;5091626;28;20180;-77
2022/04/23 07:46:30;;;;;;;0.50;0.50;;;10.40;1.00;;;;;;5089833;28;20693;-77
2022/04/23 07:48:58;;;;;;;0.70;0.70;;;10.40;99.90;;;;;;5088379;28;20186;-76
2022/04/23 07:51:26;;;;;;;0.60;0.60;;;10.60;1.00;;;;;;5085987;28;20258;-76
2022/04/23 07:53:52;;;;;;;0.60;0.60;;;10.30;99.90;;;;;;5090040;28;20227;-77
2022/04/23 07:56:18;;;;;;;0.70;0.70;;;10.30;1.00;;;;;;5081941;28;20221;-75
2022/04/23 07:58:43;;;;;;;0.70;0.70;;;10.30;99.90;;;;;;5082753;28;20200;-78
2022/04/23 08:01:09;;;;;;;0.70;0.70;;;10.50;99.90;;;;;;5091330;28;20316;-76
2022/04/23 08:03:35;;;;;;;0.60;0.60;;;10.50;1.00;;;;;;5092763;28;20260;-77
2022/04/23 08:06:00;;;;;;;0.70;0.70;;;10.50;1.00;;;;;;5092081;28;20278;-74
2022/04/23 08:08:26;;;;;;;0.70;0.70;;;10.60;1.00;;;;;;5091472;28;20170;-75
2022/04/23 08:10:51;;;;;;;0.60;0.60;;;10.70;1.00;;;;;;5091782;28;20209;-75
2022/04/23 08:13:17;;;;;;;0.70;0.70;;;10.50;99.90;;;;;;5091592;28;20170;-78
2022/04/23 08:15:43;;;;;;;0.70;0.70;;;10.70;99.90;;;;;;5091967;28;20192;-76
2022/04/23 08:18:08;;;;;;;0.50;0.50;;;10.50;99.90;;;;;;5091361;28;20677;-77
2022/04/23 08:20:34;;;;;;;0.60;0.60;;;10.70;1.00;;;;;;5093471;28;20198;-77
2022/04/23 08:23:00;;;;;;;0.60;0.60;;;10.80;1.00;;;;;;5093418;28;20627;-77
2022/04/23 08:25:25;;;;;;;0.60;0.60;;;11.00;1.00;;;;;;5095952;28;20180;-78
2022/04/23 08:30:34;;;;;;;0.70;0.70;;;11.00;99.90;;;;;;5084796;28;20213;-76
2022/04/23 08:30:44;;;;;;;0.70;0.70;;;10.90;1.00;;;;;;5092624;28;20202;-77
2022/04/23 08:33:10;;;;;;;0.70;0.70;;;11.10;1.00;;;;;;5092983;28;20610;-76
2022/04/23 08:35:37;;;;;;;0.60;0.60;;;11.20;7.70;;;;;;5088701;28;20177;-77
2022/04/23 08:38:04;;;;;;;0.63;0.63;;;11.30;1.00;;;;;;5092277;28;20190;-77
2022/04/23 08:40:39;;;;;;;0.70;0.70;;;11.00;1.00;;;;;;5090978;28;20206;-77
2022/04/23 08:43:06;;;;;;;0.60;0.60;;;10.90;1.00;;;;;;5090111;28;20182;-78
2022/04/23 08:45:32;;;;;;;0.70;0.70;;;10.90;1.00;;;;;;5089347;28;20807;-79
2022/04/23 08:48:04;;;;;;;0.53;0.53;;;11.00;99.90;;;;;;5088071;28;20185;-77
2022/04/23 08:50:30;;;;;;;0.60;0.60;;;11.10;1.00;;;;;;5088187;28;20217;-78
2022/04/23 08:52:58;;;;;;;0.60;0.60;;;11.00;1.00;;;;;;5089387;28;20205;-77
2022/04/23 08:55:26;;;;;;;0.70;0.70;;;10.80;1.00;;;;;;5084879;28;20174;-78
2022/04/23 08:57:52;;;;;;;0.70;0.70;;;11.10;1.00;;;;;;5086738;28;20162;-77
2022/04/23 09:00:18;;;;;;;0.70;0.70;;;11.20;1.00;;;;;;5082683;28;20194;-77
2022/04/23 09:02:44;;;;;;;0.70;0.70;;;11.20;1.00;;;;;;5087919;28;20228;-76
2022/04/23 09:05:13;;;;;;;0.70;0.70;;;11.00;1.00;;;;;;5093970;28;20169;-76
2022/04/23 09:07:50;;;;;;;0.70;0.70;;;10.90;99.90;;;;;;5090010;28;20184;-78
2022/04/23 09:10:16;;;;;;;0.60;0.60;;;10.90;99.90;;;;;;5090230;28;20197;-77
2022/04/23 09:12:56;;;;;;;0.70;0.70;;;11.10;99.90;;;;;;5092861;28;20642;-77
2022/04/23 09:23:44;;;;;;;0.60;0.60;;;11.70;1.00;;;;;;5073233;28;20217;-76
2022/04/23 09:26:17;;;;;;;0.53;0.53;;;11.50;1.00;;;;;;5091309;28;20619;-77
2022/04/23 09:28:47;;;;;;;0.63;0.63;;;11.50;99.90;;;;;;5084443;28;20221;-78
2022/04/23 09:31:13;;;;;;;0.60;0.60;;;11.30;99.90;;;;;;5091849;28;20205;-77
2022/04/23 09:33:51;;;;;;;0.53;0.53;;;11.50;1.00;;;;;;5085522;28;20579;-78
2022/04/23 09:36:17;;;;;;;0.70;0.70;;;11.60;1.00;;;;;;5089305;28;20170;-78
2022/04/23 09:38:43;;;;;;;0.70;0.70;;;11.60;1.00;;;;;;5090338;28;20185;-77
2022/04/23 09:41:19;;;;;;;0.70;0.70;;;11.70;1.00;;;;;;5091288;28;20569;-76
2022/04/23 09:43:48;;;;;;;0.60;0.60;;;11.80;99.90;;;;;;5089507;28;20276;-77
2022/04/23 09:46:14;;;;;;;0.60;0.60;;;11.90;99.90;;;;;;5092451;28;20220;-77
2022/04/23 09:48:43;;;;;;;0.60;0.60;;;12.00;99.90;;;;;;5091112;28;20664;-78
2022/04/23 09:51:25;;;;;;;0.53;0.53;;;11.90;1.00;;;;;;5087696;28;20205;-78
2022/04/23 09:53:53;;;;;;;0.60;0.60;;;11.90;1.00;;;;;;5089562;28;20208;-76
2022/04/23 09:56:24;;;;;;;0.60;0.60;;;11.80;44.70;;;;;;5087536;28;20213;-78
2022/04/23 09:58:50;;;;;;;0.60;0.60;;;11.70;99.90;;;;;;5086434;28;20181;-79
2022/04/23 10:01:19;;;;;;;0.60;0.60;;;11.80;1.00;;;;;;5086378;28;20252;-78
2022/04/23 10:03:46;;;;;;;0.60;0.60;;;11.80;99.90;;;;;;5091003;28;20222;-76
2022/04/23 10:06:12;;;;;;;0.70;0.70;;;12.00;96.50;;;;;;5092242;28;20236;-78
2022/04/23 10:08:42;;;;;;;0.70;0.70;;;12.00;1.00;;;;;;5092654;28;20638;-78
2022/04/23 10:11:25;;;;;;;0.60;0.60;;;12.00;1.00;;;;;;5093274;28;20284;-78
2022/04/23 10:13:59;;;;;;;0.70;0.70;;;11.90;99.90;;;;;;5093616;28;20169;-78
2022/04/23 10:16:27;;;;;;;0.60;0.60;;;11.90;99.90;;;;;;5093075;28;20696;-78
2022/04/23 10:18:55;;;;;;;0.70;0.70;;;12.00;1.00;;;;;;5092584;28;20302;-79
2022/04/23 10:21:44;;;;;;;0.73;0.73;;;12.10;99.90;;;;;;5095050;28;20197;-78
2022/04/23 10:24:22;;;;;;;0.53;0.53;;;12.40;88.80;;;;;;5098057;28;20169;-78
2022/04/23 10:26:48;;;;;;;0.57;0.57;;;12.20;1.00;;;;;;5099332;28;20243;-78
2022/04/23 10:29:20;;;;;;;0.57;0.57;;;12.10;62.40;;;;;;5098008;28;20182;-78
2022/04/23 10:32:09;;;;;;;0.60;0.60;;;12.20;1.00;;;;;;5097715;28;20204;-78
2022/04/23 10:34:34;;;;;;;0.60;0.60;;;12.20;1.00;;;;;;5098615;28;20169;-78
2022/04/23 10:37:27;;;;;;;0.60;0.60;;;12.50;1.00;;;;;;5091765;28;20173;-80
2022/04/23 10:39:52;;;;;;;0.60;0.60;;;12.70;99.90;;;;;;5092459;28;20204;-80
2022/04/23 10:42:25;;;;;;;0.50;0.50;;;12.60;99.90;;;;;;5092846;28;20178;-79
2022/04/23 10:44:55;;;;;;;0.60;0.60;;;12.70;1.00;;;;;;5093709;28;20182;-79
2022/04/23 10:47:32;;;;;;;0.60;0.60;;;13.10;99.90;;;;;;5093667;28;20313;-79
2022/04/23 10:50:20;;;;;;;0.50;0.50;;;13.10;99.90;;;;;;5092446;28;20173;-79
2022/04/23 10:52:47;;;;;;;0.50;0.50;;;12.80;1.00;;;;;;5092499;28;20178;-81
2022/04/23 10:55:13;;;;;;;0.60;0.60;;;12.90;99.90;;;;;;5092894;28;20174;-79
2022/04/23 10:57:46;;;;;;;0.50;0.50;;;13.00;99.90;;;;;;5092578;28;20523;-79
2022/04/23 11:00:15;;;;;;;0.60;0.60;;;12.90;99.90;;;;;;5088292;28;20181;-78
2022/04/23 11:02:41;;;;;;;0.50;0.50;;;12.60;99.90;;;;;;5090006;28;20193;-81
2022/04/23 11:14:41;;;;;;;0.77;0.77;;;12.50;1.00;;;;;;5090149;28;20246;-80
2022/04/23 11:17:11;;;;;;;0.70;0.70;;;13.00;1.00;;;;;;5088415;28;20185;-78
2022/04/23 11:19:39;;;;;;;0.50;0.50;;;12.70;99.90;;;;;;5085599;28;20169;-80
2022/04/23 11:22:05;;;;;;;0.70;0.70;;;12.90;1.00;;;;;;5089539;28;20715;-80
2022/04/23 11:24:31;;;;;;;0.50;0.50;;;12.90;1.00;;;;;;5091366;28;20306;-79
2022/04/23 11:26:58;;;;;;;0.60;0.60;;;13.10;99.90;;;;;;5118512;22;20229;-77
2022/04/23 11:29:26;;;;;;;0.60;0.60;;;13.20;99.90;;;;;;5068815;28;20210;-77
2022/04/23 11:31:52;;;;;;;0.57;0.57;;;13.30;99.90;;;;;;5068973;28;20210;-77
2022/04/23 11:34:17;;;;;;;0.70;0.70;;;13.30;99.90;;;;;;5068923;28;20262;-76
2022/04/23 11:36:43;;;;;;;0.60;0.60;;;13.50;99.90;;;;;;5069390;28;20273;-77
2022/04/23 11:39:10;;;;;;;0.60;0.60;;;13.50;99.90;;;;;;5073887;28;20185;-76
2022/04/23 11:41:43;;;;;;;0.60;0.60;;;13.70;99.90;;;;;;5074497;28;20572;-75
2022/04/23 11:44:16;;;;;;;0.40;0.40;;;14.00;30.70;;;;;;5074797;28;20185;-74
2022/04/23 11:46:43;;;;;;;0.50;0.50;;;14.10;1.00;;;;;;5067206;28;20616;-76
2022/04/23 11:49:09;;;;;;;0.60;0.60;;;13.90;1.00;;;;;;5073853;28;20227;-78
2022/04/23 11:51:34;;;;;;;0.50;0.50;;;14.00;12.10;;;;;;5064130;28;20203;-77
2022/04/23 11:54:00;;;;;;;0.60;0.60;;;14.10;4.00;;;;;;5072549;28;20257;-76
2022/04/23 11:56:33;;;;;;;0.50;0.50;;;14.10;21.30;;;;;;5074626;28;20197;-76
2022/04/23 11:59:06;;;;;;;0.60;0.60;;;13.70;85.30;;;;;;5073914;28;20170;-77
2022/04/23 12:01:32;;;;;;;0.53;0.53;;;13.70;65.00;;;;;;5074113;28;20190;-75
2022/04/23 12:03:59;;;;;;;0.50;0.50;;;13.60;99.90;;;;;;5073623;28;20514;-77
2022/04/23 12:06:26;;;;;;;0.60;0.60;;;13.40;99.90;;;;;;5074425;28;20218;-76
2022/04/23 12:09:02;;;;;;;0.60;0.60;;;13.50;99.90;;;;;;5073782;28;20643;-75
2022/04/23 12:11:28;;;;;;;0.60;0.60;;;13.60;99.90;;;;;;5074213;28;20694;-77
2022/04/23 12:13:53;;;;;;;0.60;0.60;;;13.80;28.50;;;;;;5073922;28;20651;-75
2022/04/23 12:16:35;;;;;;;0.57;0.57;;;13.70;36.00;;;;;;5074712;28;20236;-77
2022/04/23 12:19:07;;;;;;;0.60;0.60;;;13.80;5.90;;;;;;5073761;28;20647;-76
2022/04/23 12:21:33;;;;;;;0.70;0.70;;;13.80;99.90;;;;;;5073875;28;20682;-75
2022/04/23 12:24:00;;;;;;;0.60;0.60;;;13.70;87.50;;;;;;5073967;28;20179;-76
2022/04/23 12:26:32;;;;;;;0.60;0.60;;;13.80;1.00;;;;;;5073659;28;20276;-76
2022/04/23 12:42:30;;;;;;;0.40;0.40;;;14.20;8.60;;;;;;5074076;28;20180;-76
2022/04/23 12:44:56;;;;;;;0.60;0.60;;;14.10;1.00;;;;;;5073394;28;20261;-75
2022/04/23 12:47:35;;;;;;;0.60;0.60;;;14.20;69.60;;;;;;5061214;28;20348;-76
2022/04/23 12:50:06;;;;;;;0.50;0.50;;;14.20;8.80;;;;;;5052856;28;20528;-75
2022/04/23 12:52:44;;;;;;;0.53;0.53;;;14.30;11.30;;;;;;5053552;28;20209;-76
2022/04/23 12:55:25;;;;;;;0.57;0.57;;;14.30;1.00;;;;;;5053551;28;20254;-75
2022/04/23 12:58:02;;;;;;;0.60;0.60;;;14.00;1.00;;;;;;5052979;28;20651;-75
2022/04/23 13:00:30;;;;;;;0.40;0.40;;;14.20;1.00;;;;;;5052481;28;20195;-75
2022/04/23 13:03:11;;;;;;;0.50;0.50;;;14.20;31.30;;;;;;5053038;28;20197;-75
2022/04/23 13:05:37;;;;;;;0.50;0.50;;;14.10;6.40;;;;;;5052911;28;20206;-75
2022/04/23 13:10:46;;;;;;;0.50;0.50;;;14.20;1.00;;;;;;5052707;28;20278;-76
2022/04/23 13:13:12;;;;;;;0.50;0.50;;;14.00;1.00;;;;;;5054635;28;20214;-76
2022/04/23 13:15:39;;;;;;;0.40;0.40;;;13.90;99.90;;;;;;5053667;28;20178;-75
2022/04/23 13:18:05;;;;;;;0.50;0.50;;;14.10;99.90;;;;;;5053390;28;20261;-73
2022/04/23 13:20:31;;;;;;;0.60;0.60;;;14.00;89.70;;;;;;5052285;28;20282;-75
2022/04/23 13:22:59;;;;;;;0.50;0.50;;;13.90;99.90;;;;;;5052864;28;20296;-73
2022/04/23 13:25:25;;;;;;;0.53;0.53;;;14.10;99.90;;;;;;5052420;28;20595;-73
2022/04/23 13:27:51;;;;;;;0.50;0.50;;;14.30;43.10;;;;;;5052430;28;20226;-75
2022/04/23 13:30:17;;;;;;;0.50;0.50;;;14.50;1.00;;;;;;5052197;28;20206;-76
2022/04/23 13:32:44;;;;;;;0.50;0.50;;;14.80;1.00;;;;;;5052446;28;20563;-74
2022/04/23 13:35:12;;;;;;;0.50;0.50;;;14.80;1.00;;;;;;5052426;28;20265;-77
2022/04/23 13:37:39;;;;;;;0.53;0.53;;;14.70;1.00;;;;;;5052544;28;20607;-74
2022/04/23 13:40:05;;;;;;;0.50;0.50;;;14.60;1.00;;;;;;5051848;28;20195;-73
2022/04/23 13:42:32;;;;;;;0.50;0.50;;;14.60;1.00;;;;;;5052476;28;20180;-73
2022/04/23 13:44:57;;;;;;;0.50;0.50;;;14.50;1.00;;;;;;5052169;28;20222;-76